createdAt,value
2023-01-05T00:00:50.757Z,6.16
2023-01-05T00:03:17.287Z,6.17
2023-01-05T00:05:44.095Z,6.16
2023-01-05T00:08:10.819Z,6.21
2023-01-05T00:10:56.804Z,6.24
2023-01-05T00:13:42.129Z,6.25
2023-01-05T00:16:33.968Z,6.27
2023-01-05T00:19:19.320Z,6.24
2023-01-05T00:22:04.239Z,6.25
2023-01-05T00:24:31.810Z,6.31
2023-01-05T00:26:58.306Z,6.37
2023-01-05T00:29:24.859Z,6.36
2023-01-05T00:31:51.456Z,6.40
2023-01-05T00:34:17.994Z,6.43
2023-01-05T00:36:44.468Z,6.47
2023-01-05T00:39:10.955Z,6.46
2023-01-05T00:41:37.514Z,6.50
2023-01-05T00:44:04.042Z,6.52
2023-01-05T00:46:30.586Z,6.51
2023-01-05T00:48:57.136Z,6.51
2023-01-05T00:51:23.719Z,6.54
2023-01-05T00:53:50.180Z,6.59
2023-01-05T00:56:16.669Z,6.58
2023-01-05T00:58:43.146Z,6.63
2023-01-05T01:01:13.032Z,6.64
2023-01-05T01:03:39.788Z,6.61
2023-01-05T01:06:06.604Z,6.64
2023-01-05T01:08:33.129Z,6.64
2023-01-05T01:11:07.013Z,6.65
2023-01-05T01:13:33.687Z,6.65
2023-01-05T01:16:13.913Z,6.67
2023-01-05T01:18:40.817Z,6.65
2023-01-05T01:21:07.516Z,6.65
2023-01-05T01:23:34.373Z,6.64
2023-01-05T01:26:08.824Z,6.61
2023-01-05T01:28:35.390Z,6.57
2023-01-05T01:31:02.125Z,6.60
2023-01-05T01:33:29.270Z,6.59
2023-01-05T01:35:56.169Z,6.58
2023-01-05T01:38:23.249Z,6.64
2023-01-05T01:40:50.573Z,6.64
2023-01-05T01:43:20.216Z,6.63
2023-01-05T01:45:46.802Z,6.60
2023-01-05T01:48:17.549Z,6.61
2023-01-05T01:50:48.221Z,6.57
2023-01-05T01:53:21.529Z,6.61
2023-01-05T01:55:48.049Z,6.62
2023-01-05T01:58:16.739Z,6.65
2023-01-05T02:00:43.742Z,6.62
2023-01-05T02:03:10.716Z,6.66
2023-01-05T02:05:38.157Z,6.65
2023-01-05T02:08:10.612Z,6.73
2023-01-05T02:10:52.359Z,6.77
2023-01-05T02:13:31.574Z,6.83
2023-01-05T02:16:04.412Z,6.92
2023-01-05T02:18:39.628Z,6.89
2023-01-05T02:21:42.481Z,6.90
2023-01-05T02:24:24.417Z,6.92
2023-01-05T02:27:06.261Z,6.91
2023-01-05T02:29:42.150Z,6.94
2023-01-05T02:32:23.341Z,6.98
2023-01-05T02:35:08.584Z,6.98
2023-01-05T02:37:34.985Z,7.02
2023-01-05T02:40:20.085Z,7.05
2023-01-05T02:42:48.355Z,7.06
2023-01-05T02:45:15.661Z,7.07
2023-01-05T02:47:44.154Z,7.12
2023-01-05T02:50:30.396Z,7.11
2023-01-05T02:53:03.713Z,7.12
2023-01-05T02:55:37.387Z,7.11
2023-01-05T02:58:27.393Z,7.15
2023-01-05T03:00:57.127Z,7.11
2023-01-05T03:03:31.674Z,7.13
2023-01-05T03:06:12.205Z,7.14
2023-01-05T03:08:42.444Z,7.17
2023-01-05T03:11:29.374Z,7.23
2023-01-05T03:14:08.527Z,7.25
2023-01-05T03:16:36.363Z,7.25
2023-01-05T03:19:23.339Z,7.25
2023-01-05T03:22:09.264Z,7.24
2023-01-05T03:24:56.526Z,7.20
2023-01-05T03:27:42.182Z,7.20
2023-01-05T03:30:28.312Z,7.13
2023-01-05T03:33:23.725Z,7.09
2023-01-05T03:35:55.445Z,7.06
2023-01-05T03:38:39.140Z,7.03
2023-01-05T03:41:10.388Z,7.00
2023-01-05T03:43:37.116Z,7.02
2023-01-05T03:46:10.764Z,7.08
2023-01-05T03:48:37.632Z,7.03
2023-01-05T03:51:04.804Z,7.04
2023-01-05T03:53:31.283Z,7.06
2023-01-05T03:55:57.918Z,7.07
2023-01-05T03:58:24.389Z,7.09
2023-01-05T04:00:50.913Z,7.06
2023-01-05T04:03:17.621Z,7.04
2023-01-05T04:05:44.302Z,7.00
2023-01-05T04:08:10.823Z,7.02
2023-01-05T04:10:37.643Z,7.00
2023-01-05T04:13:04.185Z,6.94
2023-01-05T04:15:30.640Z,6.91
2023-01-05T04:17:57.394Z,6.89
2023-01-05T04:20:23.864Z,6.90
2023-01-05T04:22:50.489Z,6.92
2023-01-05T04:25:17.104Z,6.91
2023-01-05T04:27:43.841Z,6.91
2023-01-05T04:30:10.785Z,6.90
2023-01-05T04:32:37.648Z,6.88
2023-01-05T04:35:11.059Z,6.86
2023-01-05T04:37:38.998Z,6.81
2023-01-05T04:40:06.223Z,6.75
2023-01-05T04:42:32.781Z,6.72
2023-01-05T04:44:59.442Z,6.69
2023-01-05T04:47:25.965Z,6.69
2023-01-05T04:49:52.511Z,6.67
2023-01-05T04:52:19.411Z,6.67
2023-01-05T04:54:45.886Z,6.67
2023-01-05T04:57:12.326Z,6.66
2023-01-05T04:59:38.944Z,6.68
2023-01-05T05:02:05.723Z,6.68
2023-01-05T05:04:32.399Z,6.66
2023-01-05T05:06:59.027Z,6.64
2023-01-05T05:09:25.719Z,6.63
2023-01-05T05:11:52.180Z,6.65
2023-01-05T05:14:19.307Z,6.65
2023-01-05T05:16:45.887Z,6.67
2023-01-05T05:19:12.470Z,6.65
2023-01-05T05:21:39.022Z,6.68
2023-01-05T05:24:05.917Z,6.60
2023-01-05T05:26:32.422Z,6.59
2023-01-05T05:28:59.863Z,6.59
2023-01-05T05:31:26.504Z,6.54
2023-01-05T05:33:53.072Z,6.55
2023-01-05T05:36:20.377Z,6.59
2023-01-05T05:38:47.016Z,6.52
2023-01-05T05:41:13.550Z,6.52
2023-01-05T05:43:40.345Z,6.48
2023-01-05T05:46:06.988Z,6.50
2023-01-05T05:48:33.604Z,6.47
2023-01-05T05:51:00.334Z,6.46
2023-01-05T05:53:26.980Z,6.50
2023-01-05T05:55:53.547Z,6.45
2023-01-05T05:58:20.392Z,6.42
2023-01-05T06:00:47.059Z,6.46
2023-01-05T06:03:13.766Z,6.42
2023-01-05T06:05:40.434Z,6.40
2023-01-05T06:08:07.080Z,6.40
2023-01-05T06:10:35.160Z,6.44
2023-01-05T06:13:01.842Z,6.46
2023-01-05T06:15:28.469Z,6.40
2023-01-05T06:17:54.982Z,6.43
2023-01-05T06:20:22.189Z,6.39
2023-01-05T06:22:48.642Z,6.40
2023-01-05T06:25:15.806Z,6.38
2023-01-05T06:27:42.435Z,6.41
2023-01-05T06:30:09.819Z,6.44
2023-01-05T06:32:36.329Z,6.49
2023-01-05T06:35:02.957Z,6.47
2023-01-05T06:37:29.476Z,6.50
2023-01-05T06:39:56.480Z,6.52
2023-01-05T06:42:23.678Z,6.49
2023-01-05T06:44:50.457Z,6.45
2023-01-05T06:47:17.212Z,6.52
2023-01-05T06:49:43.684Z,6.51
2023-01-05T06:52:15.930Z,6.49
2023-01-05T06:54:43.286Z,6.49
2023-01-05T06:57:09.900Z,6.45
2023-01-05T06:59:36.591Z,6.44
2023-01-05T07:02:03.453Z,6.44
2023-01-05T07:04:30.239Z,6.45
2023-01-05T07:06:57.161Z,6.42
2023-01-05T07:09:23.659Z,6.44
2023-01-05T07:11:50.156Z,6.45
2023-01-05T07:14:17.295Z,6.43
2023-01-05T07:16:43.882Z,6.52
2023-01-05T07:19:10.782Z,6.45
2023-01-05T07:21:37.261Z,6.44
2023-01-05T07:24:03.889Z,6.47
2023-01-05T07:26:30.398Z,6.47
2023-01-05T07:28:58.505Z,6.53
2023-01-05T07:31:24.977Z,6.51
2023-01-05T07:33:51.497Z,6.55
2023-01-05T07:36:18.255Z,6.58
2023-01-05T07:38:44.923Z,6.58
2023-01-05T07:41:11.770Z,6.62
2023-01-05T07:43:38.389Z,6.65
2023-01-05T07:46:05.404Z,6.68
2023-01-05T07:48:32.111Z,6.70
2023-01-05T07:51:05.588Z,6.73
2023-01-05T07:53:41.285Z,6.78
2023-01-05T07:56:11.376Z,6.81
2023-01-05T07:58:37.925Z,6.84
2023-01-05T08:01:10.421Z,6.86
2023-01-05T08:03:37.147Z,6.85
2023-01-05T08:06:12.086Z,6.88
2023-01-05T08:08:38.921Z,6.87
2023-01-05T08:11:07.012Z,6.88
2023-01-05T08:13:55.687Z,6.90
2023-01-05T08:16:24.769Z,6.87
2023-01-05T08:18:51.785Z,6.89
2023-01-05T08:21:20.547Z,6.87
2023-01-05T08:23:47.113Z,6.88
2023-01-05T08:26:17.040Z,6.85
2023-01-05T08:28:43.915Z,6.91
2023-01-05T08:31:13.836Z,6.95
2023-01-05T08:33:40.362Z,6.95
2023-01-05T08:36:14.760Z,6.94
2023-01-05T08:38:48.112Z,6.87
2023-01-05T08:41:35.783Z,6.90
2023-01-05T08:44:15.617Z,6.90
2023-01-05T08:46:42.176Z,6.86
2023-01-05T08:49:09.741Z,6.91
2023-01-05T08:51:37.074Z,6.88
2023-01-05T08:54:03.848Z,6.91
2023-01-05T08:56:36.385Z,6.89
2023-01-05T08:59:07.078Z,6.87
2023-01-05T09:01:33.752Z,6.92
2023-01-05T09:04:00.403Z,6.92
2023-01-05T09:06:27.540Z,6.87
2023-01-05T09:08:54.853Z,6.84
2023-01-05T09:11:23.173Z,6.72
2023-01-05T09:13:52.518Z,6.71
2023-01-05T09:16:56.850Z,6.68
2023-01-05T09:19:09.699Z,6.68
2023-01-05T09:21:36.236Z,6.63
2023-01-05T09:24:03.172Z,6.69
2023-01-05T09:26:30.125Z,6.66
2023-01-05T09:28:56.677Z,6.68
2023-01-05T09:31:23.993Z,6.64
2023-01-05T09:33:50.927Z,6.72
2023-01-05T09:36:19.351Z,6.75
2023-01-05T09:38:57.290Z,6.76
2023-01-05T09:41:28.819Z,6.84
2023-01-05T09:43:58.595Z,6.96
2023-01-05T09:46:29.776Z,7.02
2023-01-05T09:48:59.404Z,7.03
2023-01-05T09:51:26.631Z,6.87
2023-01-05T09:53:53.840Z,6.92
2023-01-05T09:57:07.376Z,7.04
2023-01-05T09:59:31.371Z,7.37
2023-01-05T10:02:05.736Z,7.50
2023-01-05T10:04:34.002Z,7.51
2023-01-05T10:07:04.409Z,7.51
2023-01-05T10:09:33.906Z,7.37
2023-01-05T10:12:28.000Z,7.43
2023-01-05T10:14:59.599Z,7.43
2023-01-05T10:17:43.638Z,7.46
2023-01-05T10:20:14.659Z,7.50
2023-01-05T10:23:21.707Z,7.80
2023-01-05T10:25:54.927Z,7.68
2023-01-05T10:28:42.498Z,7.82
2023-01-05T10:31:46.496Z,8.50
2023-01-05T10:34:51.021Z,9.08
2023-01-05T10:37:45.702Z,8.55
2023-01-05T10:40:12.315Z,8.47
2023-01-05T10:42:45.526Z,8.06
2023-01-05T10:45:15.615Z,7.97
2023-01-05T10:47:42.370Z,7.82
2023-01-05T10:50:40.215Z,7.80
2023-01-05T10:53:13.566Z,7.66
2023-01-05T10:55:50.683Z,7.76
2023-01-05T10:58:23.980Z,7.63
2023-01-05T11:00:50.955Z,7.55
2023-01-05T11:03:18.670Z,7.40
2023-01-05T11:05:47.129Z,7.40
2023-01-05T11:08:17.086Z,7.35
2023-01-05T11:10:58.303Z,7.34
2023-01-05T11:13:28.762Z,7.35
2023-01-05T11:15:59.877Z,7.30
2023-01-05T11:18:32.541Z,7.18
2023-01-05T11:21:17.627Z,7.27
2023-01-05T11:23:50.010Z,7.28
2023-01-05T11:26:23.840Z,7.27
2023-01-05T11:29:10.294Z,7.25
2023-01-05T11:31:45.829Z,7.23
2023-01-05T11:34:30.446Z,7.24
2023-01-05T11:37:04.085Z,7.32
2023-01-05T11:39:42.876Z,7.23
2023-01-05T11:42:26.014Z,7.16
2023-01-05T11:44:57.593Z,7.19
2023-01-05T11:47:26.961Z,7.06
2023-01-05T11:50:26.032Z,7.12
2023-01-05T11:52:57.605Z,7.01
2023-01-05T11:55:32.158Z,7.00
2023-01-05T11:58:17.795Z,6.93
2023-01-05T12:01:03.419Z,7.02
2023-01-05T12:03:56.894Z,7.07
2023-01-05T12:06:46.639Z,7.08
2023-01-05T12:09:34.402Z,7.10
2023-01-05T12:12:16.884Z,7.07
2023-01-05T12:14:54.278Z,7.10
2023-01-05T12:17:30.320Z,7.10
2023-01-05T12:20:32.016Z,7.12
2023-01-05T12:23:36.585Z,7.12
2023-01-05T12:26:26.319Z,7.19
2023-01-05T12:30:33.011Z,7.19
2023-01-05T12:35:23.399Z,7.12
2023-01-05T12:38:22.012Z,7.02
2023-01-05T12:40:54.974Z,7.01
2023-01-05T12:43:58.465Z,7.02
2023-01-05T12:46:40.060Z,7.04
2023-01-05T12:49:13.053Z,7.01
2023-01-05T12:52:06.885Z,7.02
2023-01-05T12:54:58.360Z,6.99
2023-01-05T12:57:41.480Z,6.92
2023-01-05T13:00:14.206Z,6.86
2023-01-05T13:02:44.521Z,6.78
2023-01-05T13:05:38.843Z,6.69
2023-01-05T13:08:15.973Z,6.55
2023-01-05T13:10:50.393Z,6.47
2023-01-05T13:13:24.763Z,6.41
2023-01-05T13:15:54.195Z,6.41
2023-01-05T13:18:21.267Z,6.34
2023-01-05T13:20:56.596Z,6.31
2023-01-05T13:23:27.843Z,6.21
2023-01-05T13:26:06.714Z,6.19
2023-01-05T13:28:34.901Z,6.22
2023-01-05T13:31:31.184Z,6.17
2023-01-05T13:34:26.538Z,6.20
2023-01-05T13:37:34.929Z,6.17
2023-01-05T13:40:01.333Z,6.18
2023-01-05T13:42:37.157Z,6.14
2023-01-05T13:45:44.937Z,6.05
2023-01-05T13:48:44.111Z,5.97
2023-01-05T13:51:55.324Z,5.87
2023-01-05T13:54:49.354Z,5.84
2023-01-05T13:57:27.261Z,5.80
2023-01-05T14:00:06.594Z,5.83
2023-01-05T14:02:38.816Z,5.83
2023-01-05T14:05:33.921Z,5.79
2023-01-05T14:08:03.306Z,5.81
2023-01-05T14:10:31.999Z,5.80
2023-01-05T14:12:59.693Z,5.83
2023-01-05T14:15:37.818Z,5.81
2023-01-05T14:18:06.353Z,5.82
2023-01-05T14:20:42.113Z,5.78
2023-01-05T14:23:37.955Z,5.76
2023-01-05T14:26:08.123Z,5.77
2023-01-05T14:28:44.483Z,5.77
2023-01-05T14:31:14.465Z,5.74
2023-01-05T14:34:09.806Z,5.75
2023-01-05T14:36:45.311Z,5.71
2023-01-05T14:39:17.772Z,5.69
2023-01-05T14:42:06.539Z,5.69
2023-01-05T14:44:49.960Z,5.73
2023-01-05T14:47:19.425Z,5.73
2023-01-05T14:50:03.647Z,5.70
2023-01-05T14:52:53.983Z,5.68
2023-01-05T14:55:49.127Z,5.70
2023-01-05T14:58:35.639Z,5.72
2023-01-05T15:01:17.653Z,5.73
2023-01-05T15:04:00.883Z,5.76
2023-01-05T15:06:36.752Z,5.78
2023-01-05T15:09:20.172Z,5.77
2023-01-05T15:12:14.283Z,5.79
2023-01-05T15:15:05.993Z,5.76
2023-01-05T15:18:09.844Z,5.75
2023-01-05T15:21:04.309Z,5.80
2023-01-05T15:23:40.205Z,5.81
2023-01-05T15:26:21.440Z,5.77
2023-01-05T15:29:11.065Z,5.83
2023-01-05T15:31:47.529Z,5.78
2023-01-05T15:34:23.690Z,5.79
2023-01-05T15:37:05.325Z,5.80
2023-01-05T15:39:37.374Z,5.90
2023-01-05T15:42:08.800Z,5.80
2023-01-05T15:44:42.671Z,5.74
2023-01-05T15:47:11.044Z,5.68
2023-01-05T15:49:38.657Z,5.59
2023-01-05T15:52:05.690Z,5.55
2023-01-05T15:54:36.480Z,5.52
2023-01-05T15:57:03.277Z,5.54
2023-01-05T15:59:40.564Z,5.35
2023-01-05T16:02:36.637Z,5.33
2023-01-05T16:05:09.563Z,5.35
2023-01-05T16:07:42.317Z,5.27
2023-01-05T16:10:35.059Z,5.26
2023-01-05T16:13:07.365Z,5.29
2023-01-05T16:15:36.140Z,5.31
2023-01-05T16:18:04.691Z,5.21
2023-01-05T16:20:32.587Z,5.18
2023-01-05T16:23:08.783Z,5.09
2023-01-05T16:25:56.817Z,5.12
2023-01-05T16:28:24.620Z,5.12
2023-01-05T16:30:53.289Z,5.06
2023-01-05T16:33:36.610Z,5.00
2023-01-05T16:36:07.879Z,5.02
2023-01-05T16:38:34.756Z,4.96
2023-01-05T16:41:11.779Z,4.84
2023-01-05T16:43:56.455Z,4.85
2023-01-05T16:46:29.161Z,4.77
2023-01-05T16:49:04.239Z,4.84
2023-01-05T16:51:35.972Z,4.79
2023-01-05T16:54:07.247Z,4.81
2023-01-05T16:56:33.845Z,4.72
2023-01-05T16:59:13.353Z,4.75
2023-01-05T17:01:44.356Z,4.73
2023-01-05T17:04:12.751Z,4.68
2023-01-05T17:06:39.722Z,4.68
2023-01-05T17:09:12.943Z,4.62
2023-01-05T17:11:39.821Z,4.65
2023-01-05T17:14:07.059Z,4.54
2023-01-05T17:16:33.778Z,4.45
2023-01-05T17:19:02.075Z,4.44
2023-01-05T17:21:31.972Z,4.45
2023-01-05T17:23:59.671Z,4.44
2023-01-05T17:26:37.621Z,4.44
2023-01-05T17:29:05.457Z,4.37
2023-01-05T17:31:31.935Z,4.37
2023-01-05T17:33:58.576Z,4.37
2023-01-05T17:36:28.367Z,4.32
2023-01-05T17:38:54.928Z,4.16
2023-01-05T17:41:21.473Z,4.10
2023-01-05T17:43:48.436Z,4.16
2023-01-05T17:46:22.711Z,4.16
2023-01-05T17:48:52.221Z,4.13
2023-01-05T17:51:20.378Z,4.09
2023-01-05T17:53:47.001Z,4.17
2023-01-05T17:56:13.745Z,4.17
2023-01-05T17:58:40.535Z,4.17
2023-01-05T18:01:07.140Z,4.18
2023-01-05T18:03:33.884Z,4.28
2023-01-05T18:06:01.593Z,4.29
2023-01-05T18:08:28.534Z,4.24
2023-01-05T18:10:55.091Z,4.23
2023-01-05T18:13:22.885Z,4.26
2023-01-05T18:15:50.569Z,4.33
2023-01-05T18:18:19.193Z,4.26
2023-01-05T18:20:45.655Z,4.29
2023-01-05T18:23:12.154Z,4.29
2023-01-05T18:25:39.621Z,4.25
2023-01-05T18:28:06.412Z,4.22
2023-01-05T18:30:32.971Z,4.15
2023-01-05T18:32:59.580Z,4.10
2023-01-05T18:35:26.251Z,4.12
2023-01-05T18:40:23.548Z,4.09
2023-01-05T18:42:53.597Z,4.02
2023-01-05T18:45:31.917Z,4.01
2023-01-05T18:48:09.192Z,3.94
2023-01-05T18:50:40.312Z,3.95
2023-01-05T18:53:07.047Z,4.00
2023-01-05T18:55:33.613Z,3.97
2023-01-05T18:58:00.197Z,3.88
2023-01-05T19:00:26.988Z,3.79
2023-01-05T19:02:53.533Z,3.80
2023-01-05T19:05:23.328Z,3.81
2023-01-05T19:07:53.265Z,3.74
2023-01-05T19:10:23.942Z,3.69
2023-01-05T19:12:50.591Z,3.65
2023-01-05T19:15:17.442Z,3.63
2023-01-05T19:17:44.058Z,3.65
2023-01-05T19:20:11.003Z,3.61
2023-01-05T19:22:37.799Z,3.67
2023-01-05T19:25:05.821Z,3.63
2023-01-05T19:27:32.365Z,3.63
2023-01-05T19:29:58.916Z,3.58
2023-01-05T19:32:25.860Z,3.56
2023-01-05T19:34:52.374Z,3.48
2023-01-05T19:37:22.386Z,3.45
2023-01-05T19:39:49.004Z,3.44
2023-01-05T19:42:15.737Z,3.45
2023-01-05T19:44:42.559Z,3.41
2023-01-05T19:47:09.212Z,3.35
2023-01-05T19:49:35.953Z,3.36
2023-01-05T19:52:02.629Z,3.30
2023-01-05T19:54:29.816Z,3.35
2023-01-05T19:56:56.462Z,3.31
2023-01-05T19:59:26.601Z,3.25
2023-01-05T20:01:54.819Z,3.22
2023-01-05T20:04:21.441Z,3.21
2023-01-05T20:06:47.954Z,3.18
2023-01-05T20:09:16.999Z,3.11
2023-01-05T20:11:47.769Z,3.12
2023-01-05T20:14:19.917Z,3.06
2023-01-05T20:16:53.706Z,3.07
2023-01-05T20:19:21.474Z,3.04
2023-01-05T20:21:49.435Z,3.04
2023-01-05T20:24:24.019Z,3.00
2023-01-05T20:26:53.465Z,2.88
2023-01-05T20:29:21.744Z,2.94
2023-01-05T20:31:56.863Z,2.88
2023-01-05T20:34:25.382Z,2.84
2023-01-05T20:36:52.040Z,2.80
2023-01-05T20:39:22.103Z,2.80
2023-01-05T20:41:51.743Z,2.78
2023-01-05T20:44:21.132Z,2.71
2023-01-05T20:46:49.726Z,2.69
2023-01-05T20:49:16.644Z,2.74
2023-01-05T20:51:44.143Z,2.58
2023-01-05T20:54:11.899Z,2.53
